createdAt,value
2023-02-13T00:02:11.591Z,25.00
2023-02-13T00:05:14.172Z,23.40
2023-02-13T00:08:16.524Z,24.05
2023-02-13T00:11:20.554Z,24.77
2023-02-13T00:14:22.671Z,27.60
2023-02-13T00:17:26.528Z,24.25
2023-02-13T00:20:28.752Z,23.92
2023-02-13T00:23:33.168Z,25.98
2023-02-13T00:26:35.348Z,23.50
2023-02-13T00:29:38.880Z,24.65
2023-02-13T00:32:41.019Z,21.83
2023-02-13T00:35:43.472Z,25.12
2023-02-13T00:38:46.808Z,23.50
2023-02-13T00:41:49.300Z,24.65
2023-02-13T00:44:51.550Z,22.05
2023-02-13T00:47:54.124Z,20.17
2023-02-13T00:50:56.622Z,20.62
2023-02-13T00:53:59.379Z,24.60
2023-02-13T00:57:03.201Z,23.02
2023-02-13T01:00:06.576Z,23.25
2023-02-13T01:03:09.603Z,21.45
2023-02-13T01:06:12.745Z,24.52
2023-02-13T01:09:15.045Z,21.00
2023-02-13T01:12:17.548Z,21.02
2023-02-13T01:15:20.490Z,20.67
2023-02-13T01:18:24.213Z,20.75
2023-02-13T01:21:26.666Z,20.52
2023-02-13T01:24:31.130Z,20.40
2023-02-13T01:27:33.996Z,22.58
2023-02-13T01:30:36.990Z,18.27
2023-02-13T01:33:39.447Z,17.48
2023-02-13T01:36:43.040Z,20.65
2023-02-13T01:39:45.285Z,19.40
2023-02-13T01:42:48.103Z,18.55
2023-02-13T01:45:55.771Z,19.33
2023-02-13T01:49:05.345Z,17.65
2023-02-13T01:52:10.125Z,17.73
2023-02-13T01:55:14.248Z,17.12
2023-02-13T01:58:22.944Z,17.42
2023-02-13T02:01:27.108Z,20.10
2023-02-13T02:04:33.887Z,18.30
2023-02-13T02:07:39.595Z,15.73
2023-02-13T02:10:42.953Z,16.23
2023-02-13T02:13:46.320Z,18.80
2023-02-13T02:16:48.947Z,17.95
2023-02-13T02:20:35.014Z,19.35
2023-02-13T02:23:49.848Z,17.20
2023-02-13T02:27:25.817Z,15.25
2023-02-13T02:30:31.382Z,16.67
2023-02-13T02:33:59.635Z,17.60
2023-02-13T02:37:13.465Z,19.62
2023-02-13T02:40:21.759Z,14.38
2023-02-13T02:43:43.095Z,16.70
2023-02-13T02:47:13.574Z,16.20
2023-02-13T02:50:41.743Z,16.73
2023-02-13T02:53:53.029Z,17.85
2023-02-13T02:57:01.189Z,14.45
2023-02-13T03:00:42.322Z,14.98
2023-02-13T03:04:05.484Z,15.63
2023-02-13T03:07:11.606Z,16.48
2023-02-13T03:10:40.798Z,16.75
2023-02-13T03:13:47.820Z,16.30
2023-02-13T03:17:09.368Z,17.35
2023-02-13T03:23:44.644Z,18.67
2023-02-13T03:27:14.234Z,18.50
2023-02-13T03:30:32.965Z,16.27
2023-02-13T03:34:06.572Z,19.85
2023-02-13T03:37:30.241Z,21.00
2023-02-13T03:41:19.296Z,18.02
2023-02-13T03:44:42.352Z,17.65
2023-02-13T03:47:45.358Z,18.27
2023-02-13T03:50:48.276Z,20.17
2023-02-13T03:53:56.032Z,19.87
2023-02-13T03:57:17.404Z,19.10
2023-02-13T04:00:21.546Z,19.08
2023-02-13T04:03:35.797Z,21.60
2023-02-13T04:07:12.138Z,18.42
2023-02-13T04:10:17.462Z,25.80
2023-02-13T04:13:38.868Z,20.83
2023-02-13T04:16:45.682Z,21.85
2023-02-13T04:19:48.025Z,22.58
2023-02-13T04:22:50.538Z,20.67
2023-02-13T04:25:55.598Z,22.20
2023-02-13T04:28:58.074Z,23.10
2023-02-13T04:32:01.658Z,24.12
2023-02-13T04:35:04.456Z,24.58
2023-02-13T04:38:06.640Z,23.80
2023-02-13T04:41:09.089Z,22.30
2023-02-13T04:44:11.302Z,26.35
2023-02-13T04:47:13.739Z,21.12
2023-02-13T04:50:15.988Z,27.08
2023-02-13T04:53:18.443Z,22.50
2023-02-13T04:56:20.569Z,28.52
2023-02-13T04:59:22.972Z,27.60
2023-02-13T05:02:25.386Z,28.52
2023-02-13T05:05:28.498Z,31.33
2023-02-13T05:08:30.697Z,34.17
2023-02-13T05:11:33.167Z,29.58
2023-02-13T05:14:35.349Z,36.72
2023-02-13T05:17:37.847Z,32.33
2023-02-13T05:20:40.065Z,31.08
2023-02-13T05:23:43.909Z,31.52
2023-02-13T05:26:46.061Z,29.37
2023-02-13T05:29:48.510Z,30.85
2023-02-13T05:32:54.956Z,33.97
2023-02-13T05:35:57.404Z,33.22
2023-02-13T05:39:00.736Z,31.02
2023-02-13T05:42:04.855Z,33.55
2023-02-13T05:45:07.901Z,35.03
2023-02-13T05:48:10.414Z,32.53
2023-02-13T05:51:12.663Z,33.53
2023-02-13T05:54:15.350Z,32.58
2023-02-13T05:57:17.564Z,31.52
2023-02-13T06:00:20.911Z,32.50
2023-02-13T06:03:25.213Z,30.75
2023-02-13T06:06:28.210Z,32.15
2023-02-13T06:09:30.650Z,33.33
2023-02-13T06:12:33.069Z,29.73
2023-02-13T06:15:35.512Z,31.40
2023-02-13T06:18:39.092Z,29.83
2023-02-13T06:21:41.963Z,33.70
2023-02-13T06:24:44.202Z,37.72
2023-02-13T06:27:46.829Z,34.35
2023-02-13T06:30:49.278Z,35.80
2023-02-13T06:33:52.180Z,34.70
2023-02-13T06:36:54.346Z,37.08
2023-02-13T06:39:56.821Z,35.60
2023-02-13T06:42:59.041Z,35.92
2023-02-13T06:46:06.162Z,37.78
2023-02-13T06:49:09.630Z,37.35
2023-02-13T06:52:12.336Z,39.15
2023-02-13T06:55:15.266Z,40.10
2023-02-13T06:58:18.451Z,33.75
2023-02-13T07:01:20.760Z,31.98
2023-02-13T07:04:23.536Z,33.63
2023-02-13T07:07:25.904Z,37.15
2023-02-13T07:10:28.517Z,35.50
2023-02-13T07:13:30.697Z,33.05
2023-02-13T07:16:34.707Z,53.78
2023-02-13T07:19:37.037Z,126.82
2023-02-13T07:22:45.597Z,56.40
2023-02-13T07:25:47.936Z,36.45
2023-02-13T07:28:56.971Z,37.80
2023-02-13T07:32:09.199Z,40.63
2023-02-13T07:35:11.737Z,37.92
2023-02-13T07:38:14.110Z,36.35
2023-02-13T07:41:16.542Z,34.47
2023-02-13T07:44:18.661Z,66.97
2023-02-13T07:47:21.140Z,69.28
2023-02-13T07:50:24.137Z,44.55
2023-02-13T07:53:26.752Z,42.30
2023-02-13T07:56:28.910Z,35.45
2023-02-13T07:59:31.404Z,34.65
2023-02-13T08:02:33.660Z,34.95
2023-02-13T08:05:41.375Z,36.25
2023-02-13T08:08:43.617Z,41.37
2023-02-13T08:12:09.512Z,34.75
2023-02-13T08:15:13.294Z,38.95
2023-02-13T08:18:17.022Z,37.40
2023-02-13T08:21:20.845Z,34.63
2023-02-13T08:24:25.704Z,35.47
2023-02-13T08:27:30.240Z,38.65
2023-02-13T08:30:33.535Z,35.17
2023-02-13T08:33:35.850Z,34.85
2023-02-13T08:36:38.676Z,37.55
2023-02-13T08:39:41.112Z,37.35
2023-02-13T08:42:43.679Z,36.35
2023-02-13T08:45:46.038Z,35.10
2023-02-13T08:48:48.789Z,37.42
2023-02-13T08:51:51.036Z,35.85
2023-02-13T08:54:53.545Z,38.63
2023-02-13T08:57:55.736Z,37.13
2023-02-13T09:00:58.806Z,36.50
2023-02-13T09:04:01.059Z,35.97
2023-02-13T09:07:03.702Z,36.47
2023-02-13T09:10:06.614Z,32.88
2023-02-13T09:13:09.649Z,32.30
2023-02-13T09:16:12.112Z,34.35
2023-02-13T09:19:14.778Z,30.42
2023-02-13T09:22:17.319Z,30.50
2023-02-13T09:25:21.645Z,28.00
2023-02-13T09:28:23.902Z,31.42
2023-02-13T09:31:29.173Z,32.38
2023-02-13T09:34:31.905Z,31.85
2023-02-13T09:37:34.428Z,39.33
2023-02-13T09:40:51.478Z,29.52
2023-02-13T09:43:59.620Z,29.20
2023-02-13T09:47:14.921Z,31.77
2023-02-13T09:50:24.498Z,30.65
2023-02-13T09:53:29.649Z,32.65
2023-02-13T09:56:52.684Z,31.37
2023-02-13T10:00:13.170Z,32.92
2023-02-13T10:06:49.974Z,34.53
2023-02-13T10:09:59.040Z,28.73
2023-02-13T10:13:23.625Z,32.92
2023-02-13T10:16:35.888Z,33.50
2023-02-13T10:20:01.596Z,30.65
2023-02-13T10:23:27.043Z,32.30
2023-02-13T10:26:43.656Z,28.55
2023-02-13T10:30:12.759Z,29.50
2023-02-13T10:33:36.728Z,30.85
2023-02-13T10:36:44.500Z,32.55
2023-02-13T10:39:53.249Z,32.55
2023-02-13T10:43:08.200Z,35.03
2023-02-13T10:46:22.346Z,35.33
2023-02-13T10:49:37.970Z,31.20
2023-02-13T10:52:50.812Z,31.92
2023-02-13T10:56:01.976Z,33.38
2023-02-13T10:59:16.263Z,31.15
2023-02-13T11:02:23.318Z,29.65
2023-02-13T11:05:52.455Z,31.15
2023-02-13T11:08:57.023Z,32.33
2023-02-13T11:11:59.669Z,33.28
2023-02-13T11:15:06.603Z,28.83
2023-02-13T11:18:19.674Z,30.85
2023-02-13T11:21:37.232Z,27.62
2023-02-13T11:24:55.732Z,25.45
2023-02-13T11:28:17.911Z,28.17
2023-02-13T11:31:34.986Z,29.23
2023-02-13T11:34:37.974Z,27.42
2023-02-13T11:37:40.599Z,32.50
2023-02-13T11:40:47.365Z,34.42
2023-02-13T11:44:01.657Z,34.20
2023-02-13T11:47:04.386Z,36.78
2023-02-13T11:50:46.225Z,36.30
2023-02-13T11:53:49.171Z,34.65
2023-02-13T11:57:04.867Z,35.10
2023-02-13T12:00:29.661Z,31.70
2023-02-13T12:03:33.380Z,32.53
2023-02-13T12:06:39.851Z,38.33
2023-02-13T12:09:45.456Z,36.67
2023-02-13T12:12:55.770Z,37.03
2023-02-13T12:16:03.616Z,39.38
2023-02-13T12:19:12.206Z,39.90
2023-02-13T12:22:28.616Z,36.40
2023-02-13T12:25:48.479Z,35.45
2023-02-13T12:29:00.641Z,38.47
2023-02-13T12:32:21.384Z,34.03
2023-02-13T12:35:48.971Z,37.15
2023-02-13T12:39:01.780Z,34.45
2023-02-13T12:42:19.659Z,32.22
2023-02-13T12:45:40.804Z,31.23
2023-02-13T12:49:03.556Z,35.17
2023-02-13T12:52:09.044Z,35.50
2023-02-13T12:55:26.890Z,30.80
2023-02-13T12:58:57.573Z,32.17
2023-02-13T13:05:31.384Z,24.10
2023-02-13T13:09:00.044Z,32.03
2023-02-13T13:12:11.167Z,34.30
2023-02-13T13:15:16.478Z,34.55
2023-02-13T13:18:37.077Z,34.88
2023-02-13T13:22:00.129Z,17.33
2023-02-13T13:25:43.076Z,12.55
2023-02-13T13:28:49.502Z,11.12
2023-02-13T13:31:59.860Z,10.25
2023-02-13T13:35:03.594Z,8.43
2023-02-13T13:38:17.386Z,7.00
2023-02-13T13:41:39.872Z,7.62
2023-02-13T13:44:48.157Z,6.45
2023-02-13T13:48:09.614Z,7.65
2023-02-13T13:51:17.035Z,10.05
2023-02-13T13:54:24.394Z,8.93
2023-02-13T13:57:46.775Z,9.43
2023-02-13T14:01:29.728Z,8.80
2023-02-13T14:04:33.110Z,15.50
2023-02-13T14:07:41.528Z,12.43
2023-02-13T14:10:50.400Z,11.80
2023-02-13T14:13:52.785Z,11.98
2023-02-13T14:16:58.143Z,17.58
2023-02-13T14:20:00.990Z,16.33
2023-02-13T14:23:26.528Z,14.75
2023-02-13T14:26:33.405Z,13.52
2023-02-13T14:29:36.357Z,14.00
2023-02-13T14:32:41.224Z,16.27
2023-02-13T14:35:44.114Z,17.08
2023-02-13T14:38:56.317Z,14.87
2023-02-13T14:42:01.454Z,16.60
2023-02-13T14:45:11.115Z,17.80
2023-02-13T14:48:15.361Z,15.48
2023-02-13T14:51:28.746Z,16.40
2023-02-13T14:54:49.355Z,20.23
2023-02-13T14:58:10.829Z,16.70
2023-02-13T15:01:31.871Z,19.73
2023-02-13T15:04:46.826Z,25.50
2023-02-13T15:08:16.264Z,18.67
2023-02-13T15:11:37.736Z,17.65
2023-02-13T15:14:40.738Z,20.33
2023-02-13T15:17:43.116Z,24.77
2023-02-13T15:20:47.108Z,16.92
2023-02-13T15:23:52.611Z,23.55
2023-02-13T15:27:03.994Z,16.30
2023-02-13T15:36:25.493Z,15.10
2023-02-13T15:39:31.864Z,18.90
2023-02-13T15:42:34.802Z,13.73
2023-02-13T15:45:37.233Z,13.10
2023-02-13T15:48:39.408Z,14.50
2023-02-13T15:51:42.278Z,15.23
2023-02-13T15:54:53.053Z,10.68
2023-02-13T16:01:09.336Z,13.60
2023-02-13T16:04:15.320Z,11.75
2023-02-13T16:07:17.641Z,12.00
2023-02-13T16:10:29.556Z,11.38
2023-02-13T16:13:31.849Z,10.73
2023-02-13T16:16:49.477Z,12.57
2023-02-13T16:19:54.093Z,9.82
2023-02-13T16:22:59.151Z,8.90
2023-02-13T16:26:06.150Z,10.02
2023-02-13T16:29:11.460Z,10.70
2023-02-13T16:32:22.186Z,9.57
2023-02-13T16:35:29.056Z,9.85
2023-02-13T16:38:43.502Z,7.75
2023-02-13T16:41:45.985Z,13.15
2023-02-13T16:44:48.238Z,9.50
2023-02-13T16:48:02.451Z,10.18
2023-02-13T16:51:05.066Z,15.38
2023-02-13T16:54:10.564Z,14.75
2023-02-13T16:57:17.493Z,12.85
2023-02-13T17:00:24.430Z,14.82
2023-02-13T17:03:26.648Z,13.23
2023-02-13T17:06:29.053Z,15.63
2023-02-13T17:09:31.297Z,15.32
2023-02-13T17:12:38.629Z,12.32
2023-02-13T17:15:45.881Z,14.55
2023-02-13T17:18:48.354Z,10.40
2023-02-13T17:21:55.653Z,12.90
2023-02-13T17:24:59.226Z,11.65
2023-02-13T17:28:24.134Z,13.68
2023-02-13T17:31:26.625Z,14.48
2023-02-13T17:34:28.897Z,14.25
2023-02-13T17:37:32.816Z,14.20
2023-02-13T17:40:35.324Z,15.02
2023-02-13T17:43:37.927Z,13.20
2023-02-13T17:46:40.553Z,12.27
2023-02-13T17:49:43.098Z,13.48
2023-02-13T17:52:47.568Z,17.60
2023-02-13T17:55:50.805Z,15.82
2023-02-13T17:58:52.944Z,15.40
2023-02-13T18:01:55.448Z,13.70
2023-02-13T18:04:57.889Z,17.52
2023-02-13T18:08:02.616Z,18.20
2023-02-13T18:11:10.826Z,17.37
2023-02-13T18:14:12.977Z,20.05
2023-02-13T18:17:16.012Z,18.73
2023-02-13T18:20:23.585Z,22.35
2023-02-13T18:23:26.148Z,25.20
2023-02-13T18:26:28.312Z,18.73
2023-02-13T18:29:30.813Z,19.02
2023-02-13T18:32:32.938Z,22.73
2023-02-13T18:35:37.292Z,23.33
2023-02-13T18:38:39.394Z,22.48
2023-02-13T18:41:42.142Z,21.30
2023-02-13T18:44:44.280Z,27.62
2023-02-13T18:47:46.716Z,26.25
2023-02-13T18:50:49.267Z,22.37
2023-02-13T18:53:51.969Z,22.75
2023-02-13T18:56:54.265Z,21.20
2023-02-13T18:59:56.749Z,22.35
2023-02-13T19:02:59.663Z,23.50
2023-02-13T19:06:08.305Z,20.55
2023-02-13T19:09:10.834Z,21.27
2023-02-13T19:12:13.370Z,23.25
2023-02-13T19:15:16.463Z,25.02
2023-02-13T19:18:18.884Z,24.73
2023-02-13T19:21:23.324Z,22.15
2023-02-13T19:24:25.750Z,20.80
2023-02-13T19:27:27.918Z,20.17
2023-02-13T19:30:30.353Z,19.90
2023-02-13T19:33:32.790Z,24.23
2023-02-13T19:36:35.236Z,22.23
2023-02-13T19:39:37.497Z,20.75
2023-02-13T19:42:40.336Z,17.23
2023-02-13T19:45:43.634Z,15.18
2023-02-13T19:48:49.254Z,15.25
2023-02-13T19:51:51.489Z,16.45
2023-02-13T19:54:54.213Z,14.48
2023-02-13T19:57:56.362Z,16.27
2023-02-13T20:01:14.843Z,17.80
2023-02-13T20:04:17.358Z,13.15
2023-02-13T20:07:19.560Z,15.10
2023-02-13T20:10:22.006Z,14.75
2023-02-13T20:13:24.782Z,13.52
2023-02-13T20:16:27.909Z,16.00
2023-02-13T20:19:30.704Z,13.98
2023-02-13T20:22:33.141Z,14.43
2023-02-13T20:25:35.553Z,13.40
2023-02-13T20:28:38.244Z,13.65
2023-02-13T20:31:41.507Z,14.90
2023-02-13T20:34:58.707Z,13.73
2023-02-13T20:38:01.983Z,12.68
2023-02-13T20:41:12.262Z,11.35
2023-02-13T20:44:16.127Z,11.77
2023-02-13T20:47:18.745Z,13.48
2023-02-13T20:50:21.171Z,12.70
2023-02-13T20:53:23.558Z,12.00
2023-02-13T20:56:28.100Z,12.10
2023-02-13T20:59:30.658Z,10.63
2023-02-13T21:02:32.854Z,7.95
2023-02-13T21:05:35.370Z,10.15
2023-02-13T21:08:38.100Z,9.65
2023-02-13T21:11:43.077Z,9.40
2023-02-13T21:14:45.251Z,11.12
2023-02-13T21:17:47.704Z,11.68
2023-02-13T21:20:49.904Z,10.45
2023-02-13T21:23:54.221Z,12.52
2023-02-13T21:26:56.400Z,10.85
2023-02-13T21:29:58.911Z,11.20
2023-02-13T21:33:01.090Z,11.00
2023-02-13T21:36:06.685Z,7.68
2023-02-13T21:39:10.488Z,8.55
2023-02-13T21:42:12.969Z,13.13
2023-02-13T21:45:15.289Z,11.80
2023-02-13T21:48:17.706Z,11.18
2023-02-13T21:51:20.539Z,10.18
2023-02-13T21:54:22.993Z,11.15
2023-02-13T21:57:25.175Z,11.48
2023-02-13T22:00:27.601Z,11.45
2023-02-13T22:03:30.327Z,13.90
2023-02-13T22:06:35.417Z,11.60
2023-02-13T22:09:38.056Z,13.13
2023-02-13T22:12:40.221Z,12.57
2023-02-13T22:15:42.681Z,11.68
2023-02-13T22:18:45.523Z,13.35
2023-02-13T22:21:48.038Z,14.75
2023-02-13T22:24:50.261Z,14.40
2023-02-13T22:27:52.659Z,13.62
2023-02-13T22:30:55.164Z,14.80
2023-02-13T22:34:03.813Z,13.55
2023-02-13T22:37:08.396Z,15.32
2023-02-13T22:40:11.246Z,15.55
2023-02-13T22:43:13.370Z,13.32
2023-02-13T22:46:22.749Z,15.70
2023-02-13T22:49:25.005Z,15.85
2023-02-13T22:52:27.406Z,17.70
2023-02-13T22:55:29.532Z,19.27
2023-02-13T22:58:32.137Z,17.10
2023-02-13T23:01:34.363Z,17.45
2023-02-13T23:04:36.828Z,18.45
2023-02-13T23:07:39.118Z,17.95
2023-02-13T23:11:04.879Z,19.02
2023-02-13T23:14:07.247Z,18.20
2023-02-13T23:17:28.403Z,21.08
2023-02-13T23:20:30.576Z,20.15
2023-02-13T23:23:36.015Z,20.77
2023-02-13T23:26:38.583Z,23.12
2023-02-13T23:29:41.076Z,18.48
2023-02-13T23:32:43.243Z,23.23
2023-02-13T23:35:45.633Z,18.75
2023-02-13T23:38:49.332Z,19.27
2023-02-13T23:41:51.791Z,17.70
2023-02-13T23:44:54.649Z,18.23
2023-02-13T23:47:57.148Z,17.98
2023-02-13T23:51:00.143Z,16.05
2023-02-13T23:54:03.139Z,18.05
2023-02-13T23:57:05.515Z,17.70
